<?xml version="1.0" encoding="UTF-8" standalone="no" ?>
<gpx xmlns="http://www.topografix.com/GPX/1/1" xmlns:xsi="http://www.w3.org/2001/XMLSchema-instance" xsi:schemaLocation="http://www.topografix.com/GPX/1/1 http://www.topografix.com/GPX/1/1/gpx.xsd" version="1.1" creator="VisuGPX - https://www.visugpx.com">
  <metadata>
    <name>Jeudi?</name>
  </metadata>
  <trk>
    <name><![CDATA[Jeudi?]]></name>
    <trkseg>
      <trkpt lat="43.67405" lon="3.85945">
        <ele>60.16090974982</ele>
        <time>2021-03-03T21:05:15.000Z</time>
      </trkpt>
      <trkpt lat="43.67409" lon="3.85991">
        <ele>60.53503393366</ele>
        <time>2021-03-03T21:05:15.007Z</time>
      </trkpt>
      <trkpt lat="43.67398" lon="3.86033">
        <ele>61.30419155714</ele>
        <time>2021-03-03T21:05:15.020Z</time>
      </trkpt>
      <trkpt lat="43.674" lon="3.86118">
        <ele>62.04772449403</ele>
        <time>2021-03-03T21:05:15.046Z</time>
      </trkpt>
      <trkpt lat="43.67396" lon="3.86148">
        <ele>61.97438565588</ele>
        <time>2021-03-03T21:05:15.076Z</time>
      </trkpt>
      <trkpt lat="43.67385" lon="3.86168">
        <ele>61.45127843967</ele>
        <time>2021-03-03T21:05:15.110Z</time>
      </trkpt>
      <trkpt lat="43.67344" lon="3.86208">
        <ele>60.05455022373</ele>
        <time>2021-03-03T21:05:15.154Z</time>
      </trkpt>
      <trkpt lat="43.67334" lon="3.86226">
        <ele>58.56885866433</ele>
        <time>2021-03-03T21:05:15.201Z</time>
      </trkpt>
      <trkpt lat="43.67277" lon="3.86268">
        <ele>56.76849790574</ele>
        <time>2021-03-03T21:05:15.261Z</time>
      </trkpt>
      <trkpt lat="43.67286" lon="3.86284">
        <ele>55.30456082449</ele>
        <time>2021-03-03T21:05:15.324Z</time>
      </trkpt>
      <trkpt lat="43.67298" lon="3.86331">
        <ele>54.01578439256</ele>
        <time>2021-03-03T21:05:15.394Z</time>
      </trkpt>
      <trkpt lat="43.67332" lon="3.86389">
        <ele>53.00071899353</ele>
        <time>2021-03-03T21:05:15.475Z</time>
      </trkpt>
      <trkpt lat="43.6735" lon="3.86426">
        <ele>52.4471443138</ele>
        <time>2021-03-03T21:05:15.562Z</time>
      </trkpt>
      <trkpt lat="43.67323" lon="3.86439">
        <ele>51.7313427262</ele>
        <time>2021-03-03T21:05:15.655Z</time>
      </trkpt>
      <trkpt lat="43.67291" lon="3.86476">
        <ele>51.24696436072</ele>
        <time>2021-03-03T21:05:15.756Z</time>
      </trkpt>
      <trkpt lat="43.67301" lon="3.86537">
        <ele>50.8832578421</ele>
        <time>2021-03-03T21:05:15.867Z</time>
      </trkpt>
      <trkpt lat="43.67294" lon="3.86541">
        <ele>50.65186128444</ele>
        <time>2021-03-03T21:05:15.979Z</time>
      </trkpt>
      <trkpt lat="43.67294" lon="3.86541">
        <ele>50.56249692133</ele>
        <time>2021-03-03T21:05:16.091Z</time>
      </trkpt>
      <trkpt lat="43.67314" lon="3.86637">
        <ele>50.64107148276</ele>
        <time>2021-03-03T21:05:16.218Z</time>
      </trkpt>
      <trkpt lat="43.67324" lon="3.8668">
        <ele>50.80650651945</ele>
        <time>2021-03-03T21:05:16.351Z</time>
      </trkpt>
      <trkpt lat="43.67324" lon="3.8668">
        <ele>51.00191446681</ele>
        <time>2021-03-03T21:05:16.484Z</time>
      </trkpt>
      <trkpt lat="43.67335" lon="3.86738">
        <ele>51.53510431792</ele>
        <time>2021-03-03T21:05:16.626Z</time>
      </trkpt>
      <trkpt lat="43.67348" lon="3.86737">
        <ele>51.82907269609</ele>
        <time>2021-03-03T21:05:16.771Z</time>
      </trkpt>
      <trkpt lat="43.67357" lon="3.8676">
        <ele>52.36286563286</ele>
        <time>2021-03-03T21:05:16.919Z</time>
      </trkpt>
      <trkpt lat="43.67355" lon="3.86768">
        <ele>52.83541753751</ele>
        <time>2021-03-03T21:05:17.069Z</time>
      </trkpt>
      <trkpt lat="43.67437" lon="3.86775">
        <ele>53.28017151952</ele>
        <time>2021-03-03T21:05:17.235Z</time>
      </trkpt>
      <trkpt lat="43.67521" lon="3.86736">
        <ele>53.20938243527</ele>
        <time>2021-03-03T21:05:17.419Z</time>
      </trkpt>
      <trkpt lat="43.67529" lon="3.86776">
        <ele>53.44588890179</ele>
        <time>2021-03-03T21:05:17.609Z</time>
      </trkpt>
      <trkpt lat="43.67529" lon="3.86776">
        <ele>53.62201607968</ele>
        <time>2021-03-03T21:05:17.799Z</time>
      </trkpt>
      <trkpt lat="43.67529" lon="3.86776">
        <ele>53.92422581766</ele>
        <time>2021-03-03T21:05:17.989Z</time>
      </trkpt>
      <trkpt lat="43.67529" lon="3.86776">
        <ele>54.19113048665</ele>
        <time>2021-03-03T21:05:18.179Z</time>
      </trkpt>
      <trkpt lat="43.67532" lon="3.8679">
        <ele>54.48701897286</ele>
        <time>2021-03-03T21:05:18.371Z</time>
      </trkpt>
      <trkpt lat="43.6754" lon="3.86868">
        <ele>54.90725746865</ele>
        <time>2021-03-03T21:05:18.574Z</time>
      </trkpt>
      <trkpt lat="43.67542" lon="3.86894">
        <ele>55.33253474184</ele>
        <time>2021-03-03T21:05:18.781Z</time>
      </trkpt>
      <trkpt lat="43.67542" lon="3.869">
        <ele>55.77309522766</ele>
        <time>2021-03-03T21:05:18.989Z</time>
      </trkpt>
      <trkpt lat="43.67543" lon="3.86912">
        <ele>56.25160363936</ele>
        <time>2021-03-03T21:05:19.199Z</time>
      </trkpt>
      <trkpt lat="43.67563" lon="3.86982">
        <ele>56.89797642601</ele>
        <time>2021-03-03T21:05:19.420Z</time>
      </trkpt>
      <trkpt lat="43.67589" lon="3.87025">
        <ele>57.59296980322</ele>
        <time>2021-03-03T21:05:19.649Z</time>
      </trkpt>
      <trkpt lat="43.67589" lon="3.87025">
        <ele>58.23600716102</ele>
        <time>2021-03-03T21:05:19.878Z</time>
      </trkpt>
      <trkpt lat="43.67632" lon="3.87103">
        <ele>58.90295904644</ele>
        <time>2021-03-03T21:05:20.121Z</time>
      </trkpt>
      <trkpt lat="43.67633" lon="3.87117">
        <ele>59.6536255799</ele>
        <time>2021-03-03T21:05:20.366Z</time>
      </trkpt>
      <trkpt lat="43.67631" lon="3.87122">
        <ele>60.51113309102</ele>
        <time>2021-03-03T21:05:20.612Z</time>
      </trkpt>
      <trkpt lat="43.67584" lon="3.87197">
        <ele>61.5086221928</ele>
        <time>2021-03-03T21:05:20.872Z</time>
      </trkpt>
      <trkpt lat="43.67546" lon="3.87247">
        <ele>62.85067757733</ele>
        <time>2021-03-03T21:05:21.143Z</time>
      </trkpt>
      <trkpt lat="43.67524" lon="3.87255">
        <ele>64.31354032458</ele>
        <time>2021-03-03T21:05:21.419Z</time>
      </trkpt>
      <trkpt lat="43.67512" lon="3.87281">
        <ele>65.62875036566</ele>
        <time>2021-03-03T21:05:21.699Z</time>
      </trkpt>
      <trkpt lat="43.67501" lon="3.87292">
        <ele>67.22629098485</ele>
        <time>2021-03-03T21:05:21.982Z</time>
      </trkpt>
      <trkpt lat="43.67501" lon="3.87293">
        <ele>69.01104217335</ele>
        <time>2021-03-03T21:05:22.265Z</time>
      </trkpt>
      <trkpt lat="43.67485" lon="3.8735">
        <ele>71.28476673554</ele>
        <time>2021-03-03T21:05:22.557Z</time>
      </trkpt>
      <trkpt lat="43.67459" lon="3.87382">
        <ele>73.82175322107</ele>
        <time>2021-03-03T21:05:22.856Z</time>
      </trkpt>
      <trkpt lat="43.67445" lon="3.87389">
        <ele>76.48377782484</ele>
        <time>2021-03-03T21:05:23.158Z</time>
      </trkpt>
      <trkpt lat="43.67411" lon="3.87378">
        <ele>79.38839855837</ele>
        <time>2021-03-03T21:05:23.467Z</time>
      </trkpt>
      <trkpt lat="43.67393" lon="3.87349">
        <ele>82.55209838279</ele>
        <time>2021-03-03T21:05:23.781Z</time>
      </trkpt>
      <trkpt lat="43.67342" lon="3.87332">
        <ele>85.95129368007</ele>
        <time>2021-03-03T21:05:24.106Z</time>
      </trkpt>
      <trkpt lat="43.67325" lon="3.87302">
        <ele>89.58074281767</ele>
        <time>2021-03-03T21:05:24.436Z</time>
      </trkpt>
      <trkpt lat="43.67314" lon="3.87293">
        <ele>93.13998570185</ele>
        <time>2021-03-03T21:05:24.769Z</time>
      </trkpt>
      <trkpt lat="43.67265" lon="3.87284">
        <ele>96.71556145581</ele>
        <time>2021-03-03T21:05:25.112Z</time>
      </trkpt>
      <trkpt lat="43.67244" lon="3.87264">
        <ele>100.11429729389</ele>
        <time>2021-03-03T21:05:25.460Z</time>
      </trkpt>
      <trkpt lat="43.672" lon="3.87272">
        <ele>103.52885263448</ele>
        <time>2021-03-03T21:05:25.817Z</time>
      </trkpt>
      <trkpt lat="43.67157" lon="3.87264">
        <ele>106.96221365096</ele>
        <time>2021-03-03T21:05:26.182Z</time>
      </trkpt>
      <trkpt lat="43.6713" lon="3.87285">
        <ele>110.02913747921</ele>
        <time>2021-03-03T21:05:26.554Z</time>
      </trkpt>
      <trkpt lat="43.6712" lon="3.87276">
        <ele>112.40117641447</ele>
        <time>2021-03-03T21:05:26.928Z</time>
      </trkpt>
      <trkpt lat="43.671" lon="3.87262">
        <ele>114.30353621516</ele>
        <time>2021-03-03T21:05:27.306Z</time>
      </trkpt>
      <trkpt lat="43.671" lon="3.87262">
        <ele>115.63576761656</ele>
        <time>2021-03-03T21:05:27.684Z</time>
      </trkpt>
      <trkpt lat="43.67084" lon="3.87242">
        <ele>116.44986021513</ele>
        <time>2021-03-03T21:05:28.067Z</time>
      </trkpt>
      <trkpt lat="43.67084" lon="3.87242">
        <ele>116.76847381706</ele>
        <time>2021-03-03T21:05:28.450Z</time>
      </trkpt>
      <trkpt lat="43.6707" lon="3.87221">
        <ele>116.53866933181</ele>
        <time>2021-03-03T21:05:28.837Z</time>
      </trkpt>
      <trkpt lat="43.6707" lon="3.87221">
        <ele>115.97679894407</ele>
        <time>2021-03-03T21:05:29.224Z</time>
      </trkpt>
      <trkpt lat="43.67053" lon="3.87192">
        <ele>114.87195326768</ele>
        <time>2021-03-03T21:05:29.616Z</time>
      </trkpt>
      <trkpt lat="43.67053" lon="3.87192">
        <ele>113.64159283731</ele>
        <time>2021-03-03T21:05:30.008Z</time>
      </trkpt>
      <trkpt lat="43.67026" lon="3.87156">
        <ele>111.96253013925</ele>
        <time>2021-03-03T21:05:30.408Z</time>
      </trkpt>
      <trkpt lat="43.67009" lon="3.87149">
        <ele>110.25809736691</ele>
        <time>2021-03-03T21:05:30.811Z</time>
      </trkpt>
      <trkpt lat="43.66909" lon="3.87138">
        <ele>108.55442612227</ele>
        <time>2021-03-03T21:05:31.234Z</time>
      </trkpt>
      <trkpt lat="43.6682" lon="3.87145">
        <ele>106.39074077839</ele>
        <time>2021-03-03T21:05:31.675Z</time>
      </trkpt>
      <trkpt lat="43.66755" lon="3.87165">
        <ele>104.06805258383</ele>
        <time>2021-03-03T21:05:32.129Z</time>
      </trkpt>
      <trkpt lat="43.66738" lon="3.87164">
        <ele>101.88776915556</ele>
        <time>2021-03-03T21:05:32.587Z</time>
      </trkpt>
      <trkpt lat="43.66738" lon="3.87164">
        <ele>99.67836713957</ele>
        <time>2021-03-03T21:05:33.045Z</time>
      </trkpt>
      <trkpt lat="43.66738" lon="3.87164">
        <ele>101.88776915556</ele>
        <time>2021-03-03T21:05:33.503Z</time>
      </trkpt>
      <trkpt lat="43.66738" lon="3.87164">
        <ele>99.67836713957</ele>
        <time>2021-03-03T21:05:33.961Z</time>
      </trkpt>
      <trkpt lat="43.66731" lon="3.8714">
        <ele>92.53936380806</ele>
        <time>2021-03-03T21:05:34.423Z</time>
      </trkpt>
      <trkpt lat="43.66731" lon="3.87101">
        <ele>89.86663722758</ele>
        <time>2021-03-03T21:05:34.890Z</time>
      </trkpt>
      <trkpt lat="43.66742" lon="3.87016">
        <ele>86.89515408521</ele>
        <time>2021-03-03T21:05:35.370Z</time>
      </trkpt>
      <trkpt lat="43.66736" lon="3.86983">
        <ele>84.2435125399</ele>
        <time>2021-03-03T21:05:35.855Z</time>
      </trkpt>
      <trkpt lat="43.66729" lon="3.8697">
        <ele>81.78454698689</ele>
        <time>2021-03-03T21:05:36.342Z</time>
      </trkpt>
      <trkpt lat="43.66695" lon="3.86955">
        <ele>79.36647831041</ele>
        <time>2021-03-03T21:05:36.836Z</time>
      </trkpt>
      <trkpt lat="43.66695" lon="3.86955">
        <ele>77.25351363565</ele>
        <time>2021-03-03T21:05:37.330Z</time>
      </trkpt>
      <trkpt lat="43.66631" lon="3.86901">
        <ele>74.85250428107</ele>
        <time>2021-03-03T21:05:37.839Z</time>
      </trkpt>
      <trkpt lat="43.66615" lon="3.86934">
        <ele>73.06401339245</ele>
        <time>2021-03-03T21:05:38.354Z</time>
      </trkpt>
      <trkpt lat="43.66596" lon="3.86928">
        <ele>71.54381684514</ele>
        <time>2021-03-03T21:05:38.873Z</time>
      </trkpt>
      <trkpt lat="43.66588" lon="3.86919">
        <ele>70.11695105352</ele>
        <time>2021-03-03T21:05:39.394Z</time>
      </trkpt>
      <trkpt lat="43.66535" lon="3.86854">
        <ele>68.92160410439</ele>
        <time>2021-03-03T21:05:39.929Z</time>
      </trkpt>
      <trkpt lat="43.66493" lon="3.86837">
        <ele>67.68288705238</ele>
        <time>2021-03-03T21:05:40.473Z</time>
      </trkpt>
      <trkpt lat="43.6643" lon="3.86807">
        <ele>66.05365153013</ele>
        <time>2021-03-03T21:05:41.030Z</time>
      </trkpt>
      <trkpt lat="43.6639" lon="3.86775">
        <ele>64.52131594061</ele>
        <time>2021-03-03T21:05:41.597Z</time>
      </trkpt>
      <trkpt lat="43.66351" lon="3.86749">
        <ele>63.07171126706</ele>
        <time>2021-03-03T21:05:42.172Z</time>
      </trkpt>
      <trkpt lat="43.66351" lon="3.86749">
        <ele>61.73092467987</ele>
        <time>2021-03-03T21:05:42.747Z</time>
      </trkpt>
      <trkpt lat="43.66306" lon="3.8672">
        <ele>60.3531721944</ele>
        <time>2021-03-03T21:05:43.332Z</time>
      </trkpt>
      <trkpt lat="43.66237" lon="3.86732">
        <ele>59.04897551673</ele>
        <time>2021-03-03T21:05:43.931Z</time>
      </trkpt>
      <trkpt lat="43.66216" lon="3.8675">
        <ele>57.77937096781</ele>
        <time>2021-03-03T21:05:44.535Z</time>
      </trkpt>
      <trkpt lat="43.66173" lon="3.86712">
        <ele>56.54609350583</ele>
        <time>2021-03-03T21:05:45.149Z</time>
      </trkpt>
      <trkpt lat="43.66151" lon="3.86708">
        <ele>55.38856344618</ele>
        <time>2021-03-03T21:05:45.768Z</time>
      </trkpt>
      <trkpt lat="43.66075" lon="3.8675">
        <ele>54.32969023196</ele>
        <time>2021-03-03T21:05:46.403Z</time>
      </trkpt>
      <trkpt lat="43.6605" lon="3.86783">
        <ele>53.80402067016</ele>
        <time>2021-03-03T21:05:47.045Z</time>
      </trkpt>
      <trkpt lat="43.66047" lon="3.86796">
        <ele>53.5460511289</ele>
        <time>2021-03-03T21:05:47.689Z</time>
      </trkpt>
      <trkpt lat="43.66047" lon="3.86796">
        <ele>53.54182840398</ele>
        <time>2021-03-03T21:05:48.333Z</time>
      </trkpt>
      <trkpt lat="43.66041" lon="3.86824">
        <ele>53.88885622988</ele>
        <time>2021-03-03T21:05:48.981Z</time>
      </trkpt>
      <trkpt lat="43.66018" lon="3.86839">
        <ele>54.38405766189</ele>
        <time>2021-03-03T21:05:49.634Z</time>
      </trkpt>
      <trkpt lat="43.66009" lon="3.86853">
        <ele>55.24621523305</ele>
        <time>2021-03-03T21:05:50.290Z</time>
      </trkpt>
      <trkpt lat="43.65978" lon="3.86911">
        <ele>56.59921160916</ele>
        <time>2021-03-03T21:05:50.957Z</time>
      </trkpt>
      <trkpt lat="43.65984" lon="3.8694">
        <ele>57.91934422512</ele>
        <time>2021-03-03T21:05:51.628Z</time>
      </trkpt>
      <trkpt lat="43.66026" lon="3.87008">
        <ele>59.61462738365</ele>
        <time>2021-03-03T21:05:52.312Z</time>
      </trkpt>
      <trkpt lat="43.66045" lon="3.87055">
        <ele>61.23358226472</ele>
        <time>2021-03-03T21:05:53.004Z</time>
      </trkpt>
      <trkpt lat="43.66047" lon="3.87057">
        <ele>62.6888169881</ele>
        <time>2021-03-03T21:05:53.696Z</time>
      </trkpt>
      <trkpt lat="43.66047" lon="3.87057">
        <ele>64.1432101464</ele>
        <time>2021-03-03T21:05:54.388Z</time>
      </trkpt>
      <trkpt lat="43.66107" lon="3.87136">
        <ele>65.92900192874</ele>
        <time>2021-03-03T21:05:55.097Z</time>
      </trkpt>
      <trkpt lat="43.66164" lon="3.87207">
        <ele>67.35566160496</ele>
        <time>2021-03-03T21:05:55.821Z</time>
      </trkpt>
      <trkpt lat="43.66236" lon="3.87259">
        <ele>68.66855520824</ele>
        <time>2021-03-03T21:05:56.561Z</time>
      </trkpt>
      <trkpt lat="43.66236" lon="3.87259">
        <ele>70.53580327243</ele>
        <time>2021-03-03T21:05:57.301Z</time>
      </trkpt>
      <trkpt lat="43.66259" lon="3.87295">
        <ele>72.68265300303</ele>
        <time>2021-03-03T21:05:58.048Z</time>
      </trkpt>
      <trkpt lat="43.66279" lon="3.87338">
        <ele>75.30539081237</ele>
        <time>2021-03-03T21:05:58.803Z</time>
      </trkpt>
      <trkpt lat="43.66288" lon="3.87358">
        <ele>78.22818417902</ele>
        <time>2021-03-03T21:05:59.561Z</time>
      </trkpt>
      <trkpt lat="43.66382" lon="3.87503">
        <ele>82.20767659919</ele>
        <time>2021-03-03T21:06:00.347Z</time>
      </trkpt>
      <trkpt lat="43.66382" lon="3.87503">
        <ele>85.60758555707</ele>
        <time>2021-03-03T21:06:01.133Z</time>
      </trkpt>
      <trkpt lat="43.66413" lon="3.87557">
        <ele>89.48163027413</ele>
        <time>2021-03-03T21:06:01.929Z</time>
      </trkpt>
      <trkpt lat="43.66513" lon="3.87674">
        <ele>93.29542896472</ele>
        <time>2021-03-03T21:06:02.752Z</time>
      </trkpt>
      <trkpt lat="43.66569" lon="3.87708">
        <ele>97.12807469586</ele>
        <time>2021-03-03T21:06:03.587Z</time>
      </trkpt>
      <trkpt lat="43.66593" lon="3.87737">
        <ele>100.63763543547</ele>
        <time>2021-03-03T21:06:04.428Z</time>
      </trkpt>
      <trkpt lat="43.66593" lon="3.87737">
        <ele>103.82426294575</ele>
        <time>2021-03-03T21:06:05.269Z</time>
      </trkpt>
      <trkpt lat="43.66586" lon="3.87788">
        <ele>106.73097546129</ele>
        <time>2021-03-03T21:06:06.118Z</time>
      </trkpt>
      <trkpt lat="43.66614" lon="3.87875">
        <ele>109.6327716489</ele>
        <time>2021-03-03T21:06:06.981Z</time>
      </trkpt>
      <trkpt lat="43.6664" lon="3.87911">
        <ele>112.17656248409</ele>
        <time>2021-03-03T21:06:07.851Z</time>
      </trkpt>
      <trkpt lat="43.6664" lon="3.87911">
        <ele>114.13859860412</ele>
        <time>2021-03-03T21:06:08.721Z</time>
      </trkpt>
      <trkpt lat="43.66668" lon="3.87948">
        <ele>115.80048875117</ele>
        <time>2021-03-03T21:06:09.599Z</time>
      </trkpt>
      <trkpt lat="43.66735" lon="3.88088">
        <ele>117.55992567832</ele>
        <time>2021-03-03T21:06:10.501Z</time>
      </trkpt>
      <trkpt lat="43.66753" lon="3.88127">
        <ele>118.44315887528</ele>
        <time>2021-03-03T21:06:11.410Z</time>
      </trkpt>
      <trkpt lat="43.66791" lon="3.88153">
        <ele>118.74782402938</ele>
        <time>2021-03-03T21:06:12.327Z</time>
      </trkpt>
      <trkpt lat="43.66888" lon="3.88224">
        <ele>118.14244741596</ele>
        <time>2021-03-03T21:06:13.266Z</time>
      </trkpt>
      <trkpt lat="43.66888" lon="3.88224">
        <ele>117.96623944211</ele>
        <time>2021-03-03T21:06:14.205Z</time>
      </trkpt>
      <trkpt lat="43.66902" lon="3.88227">
        <ele>117.66029692742</ele>
        <time>2021-03-03T21:06:15.147Z</time>
      </trkpt>
      <trkpt lat="43.67046" lon="3.88192">
        <ele>117.17302379659</ele>
        <time>2021-03-03T21:06:16.119Z</time>
      </trkpt>
      <trkpt lat="43.67057" lon="3.88216">
        <ele>117.02109846262</ele>
        <time>2021-03-03T21:06:17.095Z</time>
      </trkpt>
      <trkpt lat="43.6713" lon="3.88287">
        <ele>117.24366729497</ele>
        <time>2021-03-03T21:06:18.089Z</time>
      </trkpt>
      <trkpt lat="43.67142" lon="3.8827">
        <ele>117.43425270084</ele>
        <time>2021-03-03T21:06:19.086Z</time>
      </trkpt>
      <trkpt lat="43.67154" lon="3.88264">
        <ele>117.67151430324</ele>
        <time>2021-03-03T21:06:20.086Z</time>
      </trkpt>
      <trkpt lat="43.672" lon="3.88292">
        <ele>118.08200464914</ele>
        <time>2021-03-03T21:06:21.096Z</time>
      </trkpt>
      <trkpt lat="43.67215" lon="3.88293">
        <ele>118.46268893053</ele>
        <time>2021-03-03T21:06:22.109Z</time>
      </trkpt>
      <trkpt lat="43.67274" lon="3.88225">
        <ele>118.97111131811</ele>
        <time>2021-03-03T21:06:23.137Z</time>
      </trkpt>
      <trkpt lat="43.67284" lon="3.88216">
        <ele>119.1605977976</ele>
        <time>2021-03-03T21:06:24.167Z</time>
      </trkpt>
      <trkpt lat="43.67307" lon="3.88232">
        <ele>119.18264717787</ele>
        <time>2021-03-03T21:06:25.202Z</time>
      </trkpt>
      <trkpt lat="43.67328" lon="3.8823">
        <ele>119.05978851411</ele>
        <time>2021-03-03T21:06:26.242Z</time>
      </trkpt>
      <trkpt lat="43.67401" lon="3.88291">
        <ele>118.85607317673</ele>
        <time>2021-03-03T21:06:27.299Z</time>
      </trkpt>
      <trkpt lat="43.67447" lon="3.88295">
        <ele>118.48540101642</ele>
        <time>2021-03-03T21:06:28.365Z</time>
      </trkpt>
      <trkpt lat="43.67468" lon="3.88292">
        <ele>118.12287841681</ele>
        <time>2021-03-03T21:06:29.435Z</time>
      </trkpt>
      <trkpt lat="43.67487" lon="3.88299">
        <ele>117.71352412442</ele>
        <time>2021-03-03T21:06:30.509Z</time>
      </trkpt>
      <trkpt lat="43.67531" lon="3.88278">
        <ele>117.45378639412</ele>
        <time>2021-03-03T21:06:31.592Z</time>
      </trkpt>
      <trkpt lat="43.67531" lon="3.88278">
        <ele>117.14179406339</ele>
        <time>2021-03-03T21:06:32.675Z</time>
      </trkpt>
      <trkpt lat="43.67618" lon="3.88278">
        <ele>116.92636412519</ele>
        <time>2021-03-03T21:06:33.776Z</time>
      </trkpt>
      <trkpt lat="43.67647" lon="3.88267">
        <ele>116.65333268503</ele>
        <time>2021-03-03T21:06:34.883Z</time>
      </trkpt>
      <trkpt lat="43.67722" lon="3.88244">
        <ele>116.55975166306</ele>
        <time>2021-03-03T21:06:36.005Z</time>
      </trkpt>
      <trkpt lat="43.67768" lon="3.88215">
        <ele>116.19915772775</ele>
        <time>2021-03-03T21:06:37.137Z</time>
      </trkpt>
      <trkpt lat="43.67768" lon="3.88215">
        <ele>116.03182187341</ele>
        <time>2021-03-03T21:06:38.269Z</time>
      </trkpt>
      <trkpt lat="43.67776" lon="3.8821">
        <ele>115.89219423071</ele>
        <time>2021-03-03T21:06:39.403Z</time>
      </trkpt>
      <trkpt lat="43.67797" lon="3.88205">
        <ele>115.77431655284</ele>
        <time>2021-03-03T21:06:40.541Z</time>
      </trkpt>
      <trkpt lat="43.67836" lon="3.88196">
        <ele>115.77920028896</ele>
        <time>2021-03-03T21:06:41.687Z</time>
      </trkpt>
      <trkpt lat="43.67836" lon="3.88196">
        <ele>115.94736249405</ele>
        <time>2021-03-03T21:06:42.833Z</time>
      </trkpt>
      <trkpt lat="43.67956" lon="3.88138">
        <ele>116.44341566831</ele>
        <time>2021-03-03T21:06:44.005Z</time>
      </trkpt>
      <trkpt lat="43.67981" lon="3.88138">
        <ele>116.77254023145</ele>
        <time>2021-03-03T21:06:45.182Z</time>
      </trkpt>
      <trkpt lat="43.68048" lon="3.88163">
        <ele>117.2507827871</ele>
        <time>2021-03-03T21:06:46.373Z</time>
      </trkpt>
      <trkpt lat="43.68174" lon="3.88259">
        <ele>117.73844479896</ele>
        <time>2021-03-03T21:06:47.592Z</time>
      </trkpt>
      <trkpt lat="43.6821" lon="3.88283">
        <ele>118.21052099228</ele>
        <time>2021-03-03T21:06:48.819Z</time>
      </trkpt>
      <trkpt lat="43.68232" lon="3.88287">
        <ele>118.70062882016</ele>
        <time>2021-03-03T21:06:50.051Z</time>
      </trkpt>
      <trkpt lat="43.68319" lon="3.88255">
        <ele>119.36366601092</ele>
        <time>2021-03-03T21:06:51.301Z</time>
      </trkpt>
      <trkpt lat="43.68323" lon="3.88245">
        <ele>119.84425871137</ele>
        <time>2021-03-03T21:06:52.552Z</time>
      </trkpt>
      <trkpt lat="43.68339" lon="3.88245">
        <ele>120.29435603997</ele>
        <time>2021-03-03T21:06:53.807Z</time>
      </trkpt>
      <trkpt lat="43.68339" lon="3.88245">
        <ele>120.73916215745</ele>
        <time>2021-03-03T21:06:55.062Z</time>
      </trkpt>
      <trkpt lat="43.68444" lon="3.88242">
        <ele>121.17896016258</ele>
        <time>2021-03-03T21:06:56.338Z</time>
      </trkpt>
      <trkpt lat="43.6857" lon="3.88273">
        <ele>121.30810152568</ele>
        <time>2021-03-03T21:06:57.639Z</time>
      </trkpt>
      <trkpt lat="43.68575" lon="3.88273">
        <ele>121.57599435145</ele>
        <time>2021-03-03T21:06:58.941Z</time>
      </trkpt>
      <trkpt lat="43.68591" lon="3.88273">
        <ele>121.75435432357</ele>
        <time>2021-03-03T21:07:00.246Z</time>
      </trkpt>
      <trkpt lat="43.68629" lon="3.88272">
        <ele>121.91619660939</ele>
        <time>2021-03-03T21:07:01.559Z</time>
      </trkpt>
      <trkpt lat="43.68669" lon="3.88293">
        <ele>121.92142235825</ele>
        <time>2021-03-03T21:07:02.881Z</time>
      </trkpt>
      <trkpt lat="43.68736" lon="3.88328">
        <ele>121.96418418093</ele>
        <time>2021-03-03T21:07:04.217Z</time>
      </trkpt>
      <trkpt lat="43.68846" lon="3.88339">
        <ele>120.83582599534</ele>
        <time>2021-03-03T21:07:05.575Z</time>
      </trkpt>
      <trkpt lat="43.68846" lon="3.88339">
        <ele>119.86381394799</ele>
        <time>2021-03-03T21:07:06.933Z</time>
      </trkpt>
      <trkpt lat="43.68851" lon="3.8834">
        <ele>118.57054393987</ele>
        <time>2021-03-03T21:07:08.292Z</time>
      </trkpt>
      <trkpt lat="43.68922" lon="3.88351">
        <ele>116.80984680929</ele>
        <time>2021-03-03T21:07:09.665Z</time>
      </trkpt>
      <trkpt lat="43.68944" lon="3.8834">
        <ele>114.97085860908</ele>
        <time>2021-03-03T21:07:11.043Z</time>
      </trkpt>
      <trkpt lat="43.68967" lon="3.88354">
        <ele>112.95028520894</ele>
        <time>2021-03-03T21:07:12.426Z</time>
      </trkpt>
      <trkpt lat="43.69003" lon="3.88375">
        <ele>110.79271069981</ele>
        <time>2021-03-03T21:07:13.817Z</time>
      </trkpt>
      <trkpt lat="43.69033" lon="3.88406">
        <ele>108.48504817342</ele>
        <time>2021-03-03T21:07:15.215Z</time>
      </trkpt>
      <trkpt lat="43.6905" lon="3.8843">
        <ele>106.17660983581</ele>
        <time>2021-03-03T21:07:16.618Z</time>
      </trkpt>
      <trkpt lat="43.69132" lon="3.88473">
        <ele>103.73369902504</ele>
        <time>2021-03-03T21:07:18.039Z</time>
      </trkpt>
      <trkpt lat="43.69206" lon="3.88545">
        <ele>101.64026334089</ele>
        <time>2021-03-03T21:07:19.478Z</time>
      </trkpt>
      <trkpt lat="43.69233" lon="3.88606">
        <ele>99.95024220094</ele>
        <time>2021-03-03T21:07:20.927Z</time>
      </trkpt>
      <trkpt lat="43.69246" lon="3.88654">
        <ele>98.73985036689</ele>
        <time>2021-03-03T21:07:22.384Z</time>
      </trkpt>
      <trkpt lat="43.69264" lon="3.88691">
        <ele>98.26175438308</ele>
        <time>2021-03-03T21:07:23.847Z</time>
      </trkpt>
      <trkpt lat="43.69278" lon="3.88788">
        <ele>98.72309929269</ele>
        <time>2021-03-03T21:07:25.324Z</time>
      </trkpt>
      <trkpt lat="43.69302" lon="3.88863">
        <ele>99.83127504018</ele>
        <time>2021-03-03T21:07:26.813Z</time>
      </trkpt>
      <trkpt lat="43.69321" lon="3.889">
        <ele>101.37842517914</ele>
        <time>2021-03-03T21:07:28.309Z</time>
      </trkpt>
      <trkpt lat="43.69398" lon="3.88947">
        <ele>103.90030381864</ele>
        <time>2021-03-03T21:07:29.822Z</time>
      </trkpt>
      <trkpt lat="43.69452" lon="3.89003">
        <ele>106.43729899366</ele>
        <time>2021-03-03T21:07:31.348Z</time>
      </trkpt>
      <trkpt lat="43.69459" lon="3.89034">
        <ele>109.2132714791</ele>
        <time>2021-03-03T21:07:32.879Z</time>
      </trkpt>
      <trkpt lat="43.6946" lon="3.89092">
        <ele>112.42954872534</ele>
        <time>2021-03-03T21:07:34.418Z</time>
      </trkpt>
      <trkpt lat="43.69494" lon="3.89184">
        <ele>115.87030368424</ele>
        <time>2021-03-03T21:07:35.972Z</time>
      </trkpt>
      <trkpt lat="43.69508" lon="3.89194">
        <ele>119.28925372978</ele>
        <time>2021-03-03T21:07:37.529Z</time>
      </trkpt>
      <trkpt lat="43.69508" lon="3.89194">
        <ele>122.66066315418</ele>
        <time>2021-03-03T21:07:39.086Z</time>
      </trkpt>
      <trkpt lat="43.69522" lon="3.89205">
        <ele>125.96402641082</ele>
        <time>2021-03-03T21:07:40.647Z</time>
      </trkpt>
      <trkpt lat="43.69695" lon="3.89288">
        <ele>129.96196935222</ele>
        <time>2021-03-03T21:07:42.244Z</time>
      </trkpt>
      <trkpt lat="43.69695" lon="3.89288">
        <ele>132.6087501289</ele>
        <time>2021-03-03T21:07:43.841Z</time>
      </trkpt>
      <trkpt lat="43.69755" lon="3.8932">
        <ele>134.95920921302</ele>
        <time>2021-03-03T21:07:45.451Z</time>
      </trkpt>
      <trkpt lat="43.69786" lon="3.89347">
        <ele>136.48701330193</ele>
        <time>2021-03-03T21:07:47.069Z</time>
      </trkpt>
      <trkpt lat="43.69786" lon="3.89347">
        <ele>137.39783629953</ele>
        <time>2021-03-03T21:07:48.687Z</time>
      </trkpt>
      <trkpt lat="43.69808" lon="3.89364">
        <ele>137.70779286994</ele>
        <time>2021-03-03T21:07:50.309Z</time>
      </trkpt>
      <trkpt lat="43.6988" lon="3.8939">
        <ele>137.21435128495</ele>
        <time>2021-03-03T21:07:51.946Z</time>
      </trkpt>
      <trkpt lat="43.69915" lon="3.89421">
        <ele>136.29811758068</ele>
        <time>2021-03-03T21:07:53.592Z</time>
      </trkpt>
      <trkpt lat="43.69989" lon="3.89472">
        <ele>134.63594291403</ele>
        <time>2021-03-03T21:07:55.254Z</time>
      </trkpt>
      <trkpt lat="43.69989" lon="3.89472">
        <ele>133.13226559199</ele>
        <time>2021-03-03T21:07:56.916Z</time>
      </trkpt>
      <trkpt lat="43.70094" lon="3.89546">
        <ele>131.38321718379</ele>
        <time>2021-03-03T21:07:58.602Z</time>
      </trkpt>
      <trkpt lat="43.70155" lon="3.89612">
        <ele>129.72223400917</ele>
        <time>2021-03-03T21:08:00.303Z</time>
      </trkpt>
      <trkpt lat="43.70161" lon="3.8962">
        <ele>127.96295011933</ele>
        <time>2021-03-03T21:08:02.006Z</time>
      </trkpt>
      <trkpt lat="43.7019" lon="3.89658">
        <ele>126.27116594487</ele>
        <time>2021-03-03T21:08:03.717Z</time>
      </trkpt>
      <trkpt lat="43.70222" lon="3.89645">
        <ele>124.47814758059</ele>
        <time>2021-03-03T21:08:05.435Z</time>
      </trkpt>
      <trkpt lat="43.70295" lon="3.89672">
        <ele>122.926675468</ele>
        <time>2021-03-03T21:08:07.168Z</time>
      </trkpt>
      <trkpt lat="43.70295" lon="3.89672">
        <ele>121.64218442836</ele>
        <time>2021-03-03T21:08:08.901Z</time>
      </trkpt>
      <trkpt lat="43.70357" lon="3.89694">
        <ele>120.55996000016</ele>
        <time>2021-03-03T21:08:10.647Z</time>
      </trkpt>
      <trkpt lat="43.70357" lon="3.89694">
        <ele>119.84531798162</ele>
        <time>2021-03-03T21:08:12.393Z</time>
      </trkpt>
      <trkpt lat="43.70444" lon="3.89721">
        <ele>119.30933598292</ele>
        <time>2021-03-03T21:08:14.157Z</time>
      </trkpt>
      <trkpt lat="43.70521" lon="3.89742">
        <ele>119.36340487483</ele>
        <time>2021-03-03T21:08:15.936Z</time>
      </trkpt>
      <trkpt lat="43.70532" lon="3.89735">
        <ele>119.7339297256</ele>
        <time>2021-03-03T21:08:17.718Z</time>
      </trkpt>
      <trkpt lat="43.70552" lon="3.89809">
        <ele>120.58017389139</ele>
        <time>2021-03-03T21:08:19.511Z</time>
      </trkpt>
      <trkpt lat="43.70604" lon="3.8984">
        <ele>121.70231913946</ele>
        <time>2021-03-03T21:08:21.315Z</time>
      </trkpt>
      <trkpt lat="43.70666" lon="3.89863">
        <ele>123.57659710841</ele>
        <time>2021-03-03T21:08:23.132Z</time>
      </trkpt>
      <trkpt lat="43.70733" lon="3.89906">
        <ele>125.91095466582</ele>
        <time>2021-03-03T21:08:24.964Z</time>
      </trkpt>
      <trkpt lat="43.70733" lon="3.89906">
        <ele>128.07063307422</ele>
        <time>2021-03-03T21:08:26.796Z</time>
      </trkpt>
      <trkpt lat="43.70758" lon="3.89936">
        <ele>130.41793528688</ele>
        <time>2021-03-03T21:08:28.635Z</time>
      </trkpt>
      <trkpt lat="43.70783" lon="3.8995">
        <ele>132.66025665032</ele>
        <time>2021-03-03T21:08:30.479Z</time>
      </trkpt>
      <trkpt lat="43.70845" lon="3.89952">
        <ele>134.69563832057</ele>
        <time>2021-03-03T21:08:32.336Z</time>
      </trkpt>
      <trkpt lat="43.70854" lon="3.89945">
        <ele>136.18748314291</ele>
        <time>2021-03-03T21:08:34.195Z</time>
      </trkpt>
      <trkpt lat="43.70883" lon="3.89827">
        <ele>137.57925467945</ele>
        <time>2021-03-03T21:08:36.072Z</time>
      </trkpt>
      <trkpt lat="43.70974" lon="3.89805">
        <ele>138.0795909725</ele>
        <time>2021-03-03T21:08:37.967Z</time>
      </trkpt>
      <trkpt lat="43.7103" lon="3.89763">
        <ele>137.60443241853</ele>
        <time>2021-03-03T21:08:39.875Z</time>
      </trkpt>
      <trkpt lat="43.71084" lon="3.89736">
        <ele>136.56205279096</ele>
        <time>2021-03-03T21:08:41.795Z</time>
      </trkpt>
      <trkpt lat="43.7109" lon="3.89734">
        <ele>134.65653081198</ele>
        <time>2021-03-03T21:08:43.716Z</time>
      </trkpt>
      <trkpt lat="43.71158" lon="3.89689">
        <ele>131.36316773373</ele>
        <time>2021-03-03T21:08:45.652Z</time>
      </trkpt>
      <trkpt lat="43.71158" lon="3.89689">
        <ele>128.1753429046</ele>
        <time>2021-03-03T21:08:47.588Z</time>
      </trkpt>
      <trkpt lat="43.71163" lon="3.89686">
        <ele>124.53354978342</ele>
        <time>2021-03-03T21:08:49.525Z</time>
      </trkpt>
      <trkpt lat="43.71496" lon="3.89721">
        <ele>119.42377794922</ele>
        <time>2021-03-03T21:08:51.529Z</time>
      </trkpt>
      <trkpt lat="43.7152" lon="3.8972">
        <ele>115.65364233413</ele>
        <time>2021-03-03T21:08:53.537Z</time>
      </trkpt>
      <trkpt lat="43.71596" lon="3.89696">
        <ele>112.01874263209</ele>
        <time>2021-03-03T21:08:55.561Z</time>
      </trkpt>
      <trkpt lat="43.71596" lon="3.89696">
        <ele>108.99094300107</ele>
        <time>2021-03-03T21:08:57.585Z</time>
      </trkpt>
      <trkpt lat="43.71745" lon="3.89651">
        <ele>106.51435918298</ele>
        <time>2021-03-03T21:08:59.640Z</time>
      </trkpt>
      <trkpt lat="43.71849" lon="3.89605">
        <ele>104.73331286116</ele>
        <time>2021-03-03T21:09:01.716Z</time>
      </trkpt>
      <trkpt lat="43.71862" lon="3.89599">
        <ele>103.27882005192</ele>
        <time>2021-03-03T21:09:03.795Z</time>
      </trkpt>
      <trkpt lat="43.71927" lon="3.89551">
        <ele>102.1939737533</ele>
        <time>2021-03-03T21:09:05.889Z</time>
      </trkpt>
      <trkpt lat="43.71967" lon="3.89519">
        <ele>101.74239304867</ele>
        <time>2021-03-03T21:09:07.992Z</time>
      </trkpt>
      <trkpt lat="43.72088" lon="3.89462">
        <ele>101.45864004898</ele>
        <time>2021-03-03T21:09:10.121Z</time>
      </trkpt>
      <trkpt lat="43.72088" lon="3.89462">
        <ele>101.56444747289</ele>
        <time>2021-03-03T21:09:12.250Z</time>
      </trkpt>
      <trkpt lat="43.72163" lon="3.89456">
        <ele>102.14427106756</ele>
        <time>2021-03-03T21:09:14.394Z</time>
      </trkpt>
      <trkpt lat="43.72229" lon="3.89461">
        <ele>102.69106045734</ele>
        <time>2021-03-03T21:09:16.551Z</time>
      </trkpt>
      <trkpt lat="43.72229" lon="3.89461">
        <ele>103.4778010998</ele>
        <time>2021-03-03T21:09:18.708Z</time>
      </trkpt>
      <trkpt lat="43.7226" lon="3.89466">
        <ele>104.39544917421</ele>
        <time>2021-03-03T21:09:20.871Z</time>
      </trkpt>
      <trkpt lat="43.72301" lon="3.8941">
        <ele>105.67384719199</ele>
        <time>2021-03-03T21:09:23.046Z</time>
      </trkpt>
      <trkpt lat="43.72537" lon="3.89275">
        <ele>106.85174465382</ele>
        <time>2021-03-03T21:09:25.272Z</time>
      </trkpt>
      <trkpt lat="43.72581" lon="3.89244">
        <ele>108.30345742516</ele>
        <time>2021-03-03T21:09:27.508Z</time>
      </trkpt>
      <trkpt lat="43.72593" lon="3.89267">
        <ele>109.94784519859</ele>
        <time>2021-03-03T21:09:29.748Z</time>
      </trkpt>
      <trkpt lat="43.72609" lon="3.89346">
        <ele>111.88220033368</ele>
        <time>2021-03-03T21:09:32.000Z</time>
      </trkpt>
      <trkpt lat="43.72623" lon="3.89358">
        <ele>113.98802922278</ele>
        <time>2021-03-03T21:09:34.255Z</time>
      </trkpt>
      <trkpt lat="43.72643" lon="3.89359">
        <ele>116.22808107855</ele>
        <time>2021-03-03T21:09:36.514Z</time>
      </trkpt>
      <trkpt lat="43.72776" lon="3.89346">
        <ele>118.96978288734</ele>
        <time>2021-03-03T21:09:38.800Z</time>
      </trkpt>
      <trkpt lat="43.72937" lon="3.89354">
        <ele>121.72653154806</ele>
        <time>2021-03-03T21:09:41.118Z</time>
      </trkpt>
      <trkpt lat="43.72983" lon="3.89344">
        <ele>124.08792139284</ele>
        <time>2021-03-03T21:09:43.445Z</time>
      </trkpt>
      <trkpt lat="43.73032" lon="3.89334">
        <ele>126.42214262278</ele>
        <time>2021-03-03T21:09:45.782Z</time>
      </trkpt>
      <trkpt lat="43.7315" lon="3.8934">
        <ele>128.7193139217</ele>
        <time>2021-03-03T21:09:48.143Z</time>
      </trkpt>
      <trkpt lat="43.73176" lon="3.89349">
        <ele>130.84015962114</ele>
        <time>2021-03-03T21:09:50.509Z</time>
      </trkpt>
      <trkpt lat="43.73242" lon="3.89344">
        <ele>132.83809015569</ele>
        <time>2021-03-03T21:09:52.888Z</time>
      </trkpt>
      <trkpt lat="43.73392" lon="3.89285">
        <ele>134.95897643245</ele>
        <time>2021-03-03T21:09:55.299Z</time>
      </trkpt>
      <trkpt lat="43.73439" lon="3.89275">
        <ele>136.64689044938</ele>
        <time>2021-03-03T21:09:57.719Z</time>
      </trkpt>
      <trkpt lat="43.735" lon="3.89255">
        <ele>138.08235735229</ele>
        <time>2021-03-03T21:10:00.152Z</time>
      </trkpt>
      <trkpt lat="43.73708" lon="3.89145">
        <ele>139.60504173601</ele>
        <time>2021-03-03T21:10:02.629Z</time>
      </trkpt>
      <trkpt lat="43.73715" lon="3.89134">
        <ele>140.62381683046</ele>
        <time>2021-03-03T21:10:05.108Z</time>
      </trkpt>
      <trkpt lat="43.73803" lon="3.89212">
        <ele>141.58957702127</ele>
        <time>2021-03-03T21:10:07.608Z</time>
      </trkpt>
      <trkpt lat="43.73827" lon="3.89219">
        <ele>142.00194814146</ele>
        <time>2021-03-03T21:10:10.113Z</time>
      </trkpt>
      <trkpt lat="43.73896" lon="3.89211">
        <ele>141.9447240629</ele>
        <time>2021-03-03T21:10:12.632Z</time>
      </trkpt>
      <trkpt lat="43.7394" lon="3.89191">
        <ele>141.76922823429</ele>
        <time>2021-03-03T21:10:15.160Z</time>
      </trkpt>
      <trkpt lat="43.73988" lon="3.89193">
        <ele>141.41741799906</ele>
        <time>2021-03-03T21:10:17.698Z</time>
      </trkpt>
      <trkpt lat="43.74042" lon="3.89178">
        <ele>140.77211800498</ele>
        <time>2021-03-03T21:10:20.247Z</time>
      </trkpt>
      <trkpt lat="43.74076" lon="3.89182">
        <ele>139.92976674827</ele>
        <time>2021-03-03T21:10:22.803Z</time>
      </trkpt>
      <trkpt lat="43.7417" lon="3.89135">
        <ele>138.47286899795</ele>
        <time>2021-03-03T21:10:25.379Z</time>
      </trkpt>
      <trkpt lat="43.7417" lon="3.89135">
        <ele>137.18878857072</ele>
        <time>2021-03-03T21:10:27.955Z</time>
      </trkpt>
      <trkpt lat="43.74218" lon="3.89101">
        <ele>135.57141943473</ele>
        <time>2021-03-03T21:10:30.542Z</time>
      </trkpt>
      <trkpt lat="43.7426" lon="3.89058">
        <ele>134.17602665703</ele>
        <time>2021-03-03T21:10:33.139Z</time>
      </trkpt>
      <trkpt lat="43.74343" lon="3.89014">
        <ele>133.01712363668</ele>
        <time>2021-03-03T21:10:35.754Z</time>
      </trkpt>
      <trkpt lat="43.74417" lon="3.88962">
        <ele>131.76696319992</ele>
        <time>2021-03-03T21:10:38.385Z</time>
      </trkpt>
      <trkpt lat="43.74437" lon="3.88959">
        <ele>130.7957421911</ele>
        <time>2021-03-03T21:10:41.020Z</time>
      </trkpt>
      <trkpt lat="43.74503" lon="3.88916">
        <ele>130.00996823625</ele>
        <time>2021-03-03T21:10:43.670Z</time>
      </trkpt>
      <trkpt lat="43.74537" lon="3.88885">
        <ele>129.76972573965</ele>
        <time>2021-03-03T21:10:46.328Z</time>
      </trkpt>
      <trkpt lat="43.74569" lon="3.88875">
        <ele>129.74758752465</ele>
        <time>2021-03-03T21:10:48.993Z</time>
      </trkpt>
      <trkpt lat="43.74579" lon="3.88816">
        <ele>130.02455965972</ele>
        <time>2021-03-03T21:10:51.666Z</time>
      </trkpt>
      <trkpt lat="43.7458" lon="3.88803">
        <ele>130.2934973243</ele>
        <time>2021-03-03T21:10:54.341Z</time>
      </trkpt>
      <trkpt lat="43.74583" lon="3.88775">
        <ele>130.64420835842</ele>
        <time>2021-03-03T21:10:57.020Z</time>
      </trkpt>
      <trkpt lat="43.74583" lon="3.88774">
        <ele>131.02981588353</ele>
        <time>2021-03-03T21:10:59.700Z</time>
      </trkpt>
      <trkpt lat="43.74595" lon="3.88749">
        <ele>131.3732783449</ele>
        <time>2021-03-03T21:11:02.384Z</time>
      </trkpt>
      <trkpt lat="43.74639" lon="3.88683">
        <ele>131.76185014096</ele>
        <time>2021-03-03T21:11:05.081Z</time>
      </trkpt>
      <trkpt lat="43.74651" lon="3.88652">
        <ele>132.05936493119</ele>
        <time>2021-03-03T21:11:07.783Z</time>
      </trkpt>
      <trkpt lat="43.74656" lon="3.88625">
        <ele>132.1702665089</ele>
        <time>2021-03-03T21:11:10.489Z</time>
      </trkpt>
      <trkpt lat="43.74654" lon="3.88564">
        <ele>132.05282528203</ele>
        <time>2021-03-03T21:11:13.204Z</time>
      </trkpt>
      <trkpt lat="43.74655" lon="3.88536">
        <ele>131.80397051986</ele>
        <time>2021-03-03T21:11:15.923Z</time>
      </trkpt>
      <trkpt lat="43.74663" lon="3.88516">
        <ele>131.41104800253</ele>
        <time>2021-03-03T21:11:18.645Z</time>
      </trkpt>
      <trkpt lat="43.74663" lon="3.88515">
        <ele>130.96590219121</ele>
        <time>2021-03-03T21:11:21.367Z</time>
      </trkpt>
      <trkpt lat="43.74674" lon="3.88501">
        <ele>130.31713877795</ele>
        <time>2021-03-03T21:11:24.093Z</time>
      </trkpt>
      <trkpt lat="43.74698" lon="3.88498">
        <ele>129.56000355143</ele>
        <time>2021-03-03T21:11:26.823Z</time>
      </trkpt>
      <trkpt lat="43.74715" lon="3.88491">
        <ele>128.63363158882</ele>
        <time>2021-03-03T21:11:29.557Z</time>
      </trkpt>
      <trkpt lat="43.74723" lon="3.88479">
        <ele>127.52622689109</ele>
        <time>2021-03-03T21:11:32.293Z</time>
      </trkpt>
      <trkpt lat="43.74726" lon="3.88463">
        <ele>126.17950401819</ele>
        <time>2021-03-03T21:11:35.032Z</time>
      </trkpt>
      <trkpt lat="43.74723" lon="3.88442">
        <ele>124.58249779594</ele>
        <time>2021-03-03T21:11:37.774Z</time>
      </trkpt>
      <trkpt lat="43.7472" lon="3.88438">
        <ele>122.82271149882</ele>
        <time>2021-03-03T21:11:40.517Z</time>
      </trkpt>
      <trkpt lat="43.74711" lon="3.8841">
        <ele>120.77692471717</ele>
        <time>2021-03-03T21:11:43.264Z</time>
      </trkpt>
      <trkpt lat="43.74657" lon="3.88322">
        <ele>118.40197183235</ele>
        <time>2021-03-03T21:11:46.028Z</time>
      </trkpt>
      <trkpt lat="43.74638" lon="3.88292">
        <ele>116.11166506177</ele>
        <time>2021-03-03T21:11:48.797Z</time>
      </trkpt>
      <trkpt lat="43.74622" lon="3.88264">
        <ele>113.79170867586</ele>
        <time>2021-03-03T21:11:51.572Z</time>
      </trkpt>
      <trkpt lat="43.74595" lon="3.88209">
        <ele>111.26747008308</ele>
        <time>2021-03-03T21:11:54.356Z</time>
      </trkpt>
      <trkpt lat="43.74595" lon="3.88209">
        <ele>109.14109162918</ele>
        <time>2021-03-03T21:11:57.140Z</time>
      </trkpt>
      <trkpt lat="43.74588" lon="3.88194">
        <ele>107.07217090223</ele>
        <time>2021-03-03T21:11:59.927Z</time>
      </trkpt>
      <trkpt lat="43.74593" lon="3.88176">
        <ele>105.19487134918</ele>
        <time>2021-03-03T21:12:02.717Z</time>
      </trkpt>
      <trkpt lat="43.74619" lon="3.88154">
        <ele>103.43162010488</ele>
        <time>2021-03-03T21:12:05.513Z</time>
      </trkpt>
      <trkpt lat="43.74626" lon="3.88148">
        <ele>102.036067382</ele>
        <time>2021-03-03T21:12:08.310Z</time>
      </trkpt>
      <trkpt lat="43.74664" lon="3.88139">
        <ele>100.94898941905</ele>
        <time>2021-03-03T21:12:11.115Z</time>
      </trkpt>
      <trkpt lat="43.74669" lon="3.88139">
        <ele>100.15838590961</ele>
        <time>2021-03-03T21:12:13.921Z</time>
      </trkpt>
      <trkpt lat="43.74705" lon="3.88124">
        <ele>99.65606647312</ele>
        <time>2021-03-03T21:12:16.735Z</time>
      </trkpt>
      <trkpt lat="43.74714" lon="3.88125">
        <ele>99.364910294</ele>
        <time>2021-03-03T21:12:19.550Z</time>
      </trkpt>
      <trkpt lat="43.74727" lon="3.88113">
        <ele>99.26688531289</ele>
        <time>2021-03-03T21:12:22.368Z</time>
      </trkpt>
      <trkpt lat="43.74731" lon="3.88098">
        <ele>99.32416423743</ele>
        <time>2021-03-03T21:12:25.189Z</time>
      </trkpt>
      <trkpt lat="43.74728" lon="3.88081">
        <ele>99.56926798535</ele>
        <time>2021-03-03T21:12:28.012Z</time>
      </trkpt>
      <trkpt lat="43.74701" lon="3.88043">
        <ele>99.96003768379</ele>
        <time>2021-03-03T21:12:30.843Z</time>
      </trkpt>
      <trkpt lat="43.74699" lon="3.88028">
        <ele>100.52999353182</ele>
        <time>2021-03-03T21:12:33.676Z</time>
      </trkpt>
      <trkpt lat="43.74707" lon="3.88011">
        <ele>101.22709957187</ele>
        <time>2021-03-03T21:12:36.512Z</time>
      </trkpt>
      <trkpt lat="43.74718" lon="3.87992">
        <ele>102.02643687302</ele>
        <time>2021-03-03T21:12:39.352Z</time>
      </trkpt>
      <trkpt lat="43.74731" lon="3.8798">
        <ele>102.88726843121</ele>
        <time>2021-03-03T21:12:42.195Z</time>
      </trkpt>
      <trkpt lat="43.74763" lon="3.87977">
        <ele>103.76482524408</ele>
        <time>2021-03-03T21:12:45.044Z</time>
      </trkpt>
      <trkpt lat="43.74827" lon="3.87975">
        <ele>104.58796328997</ele>
        <time>2021-03-03T21:12:47.906Z</time>
      </trkpt>
      <trkpt lat="43.74834" lon="3.87969">
        <ele>105.5383983993</ele>
        <time>2021-03-03T21:12:50.770Z</time>
      </trkpt>
      <trkpt lat="43.74837" lon="3.87956">
        <ele>106.54264554825</ele>
        <time>2021-03-03T21:12:53.636Z</time>
      </trkpt>
      <trkpt lat="43.74832" lon="3.87875">
        <ele>107.70515347838</ele>
        <time>2021-03-03T21:12:56.513Z</time>
      </trkpt>
      <trkpt lat="43.74834" lon="3.87844">
        <ele>108.80517094737</ele>
        <time>2021-03-03T21:12:59.395Z</time>
      </trkpt>
      <trkpt lat="43.74824" lon="3.87814">
        <ele>109.80648590695</ele>
        <time>2021-03-03T21:13:02.282Z</time>
      </trkpt>
      <trkpt lat="43.74819" lon="3.87797">
        <ele>110.65445474814</ele>
        <time>2021-03-03T21:13:05.172Z</time>
      </trkpt>
      <trkpt lat="43.74812" lon="3.87776">
        <ele>111.39313639541</ele>
        <time>2021-03-03T21:13:08.065Z</time>
      </trkpt>
      <trkpt lat="43.74812" lon="3.87776">
        <ele>111.98825129255</ele>
        <time>2021-03-03T21:13:10.958Z</time>
      </trkpt>
      <trkpt lat="43.74806" lon="3.87743">
        <ele>112.48616323192</ele>
        <time>2021-03-03T21:13:13.856Z</time>
      </trkpt>
      <trkpt lat="43.74806" lon="3.87721">
        <ele>112.81982714331</ele>
        <time>2021-03-03T21:13:16.757Z</time>
      </trkpt>
      <trkpt lat="43.74799" lon="3.87703">
        <ele>112.98995354152</ele>
        <time>2021-03-03T21:13:19.661Z</time>
      </trkpt>
      <trkpt lat="43.74793" lon="3.8768">
        <ele>112.93062411224</ele>
        <time>2021-03-03T21:13:22.568Z</time>
      </trkpt>
      <trkpt lat="43.7479" lon="3.8763">
        <ele>112.71815738479</ele>
        <time>2021-03-03T21:13:25.483Z</time>
      </trkpt>
      <trkpt lat="43.74767" lon="3.87562">
        <ele>112.34102253919</ele>
        <time>2021-03-03T21:13:28.409Z</time>
      </trkpt>
      <trkpt lat="43.74702" lon="3.87468">
        <ele>111.82011883511</ele>
        <time>2021-03-03T21:13:31.353Z</time>
      </trkpt>
      <trkpt lat="43.74681" lon="3.87424">
        <ele>111.31228615667</ele>
        <time>2021-03-03T21:13:34.305Z</time>
      </trkpt>
      <trkpt lat="43.74672" lon="3.87383">
        <ele>110.71709379945</ele>
        <time>2021-03-03T21:13:37.263Z</time>
      </trkpt>
      <trkpt lat="43.74658" lon="3.87269">
        <ele>110.05398857704</ele>
        <time>2021-03-03T21:13:40.238Z</time>
      </trkpt>
      <trkpt lat="43.74661" lon="3.87185">
        <ele>109.12220439346</ele>
        <time>2021-03-03T21:13:43.225Z</time>
      </trkpt>
      <trkpt lat="43.74669" lon="3.8713">
        <ele>108.27458873208</ele>
        <time>2021-03-03T21:13:46.220Z</time>
      </trkpt>
      <trkpt lat="43.74688" lon="3.87089">
        <ele>107.30924957141</ele>
        <time>2021-03-03T21:13:49.222Z</time>
      </trkpt>
      <trkpt lat="43.74693" lon="3.87046">
        <ele>106.09227425474</ele>
        <time>2021-03-03T21:13:52.231Z</time>
      </trkpt>
      <trkpt lat="43.74687" lon="3.87008">
        <ele>104.7420564041</ele>
        <time>2021-03-03T21:13:55.245Z</time>
      </trkpt>
      <trkpt lat="43.74667" lon="3.86978">
        <ele>103.22434624861</ele>
        <time>2021-03-03T21:13:58.265Z</time>
      </trkpt>
      <trkpt lat="43.74652" lon="3.86935">
        <ele>101.48574994798</ele>
        <time>2021-03-03T21:14:01.292Z</time>
      </trkpt>
      <trkpt lat="43.74532" lon="3.86807">
        <ele>99.32706663843</ele>
        <time>2021-03-03T21:14:04.350Z</time>
      </trkpt>
      <trkpt lat="43.74421" lon="3.86724">
        <ele>97.07684369847</ele>
        <time>2021-03-03T21:14:07.433Z</time>
      </trkpt>
      <trkpt lat="43.74379" lon="3.86719">
        <ele>94.98037421553</ele>
        <time>2021-03-03T21:14:10.524Z</time>
      </trkpt>
      <trkpt lat="43.7433" lon="3.86698">
        <ele>92.74827814184</ele>
        <time>2021-03-03T21:14:13.625Z</time>
      </trkpt>
      <trkpt lat="43.74283" lon="3.86647">
        <ele>90.42187531131</ele>
        <time>2021-03-03T21:14:16.738Z</time>
      </trkpt>
      <trkpt lat="43.74283" lon="3.86647">
        <ele>88.35654132854</ele>
        <time>2021-03-03T21:14:19.851Z</time>
      </trkpt>
      <trkpt lat="43.74218" lon="3.86604">
        <ele>86.09659610471</ele>
        <time>2021-03-03T21:14:22.979Z</time>
      </trkpt>
      <trkpt lat="43.742" lon="3.8654">
        <ele>84.16392486737</ele>
        <time>2021-03-03T21:14:26.117Z</time>
      </trkpt>
      <trkpt lat="43.7419" lon="3.86531">
        <ele>82.465044219</ele>
        <time>2021-03-03T21:14:29.257Z</time>
      </trkpt>
      <trkpt lat="43.74168" lon="3.86531">
        <ele>80.92233575981</ele>
        <time>2021-03-03T21:14:32.402Z</time>
      </trkpt>
      <trkpt lat="43.74167" lon="3.86513">
        <ele>79.58270417408</ele>
        <time>2021-03-03T21:14:35.549Z</time>
      </trkpt>
      <trkpt lat="43.74179" lon="3.86473">
        <ele>78.46780673275</ele>
        <time>2021-03-03T21:14:38.702Z</time>
      </trkpt>
      <trkpt lat="43.74274" lon="3.86401">
        <ele>77.40363464309</ele>
        <time>2021-03-03T21:14:41.877Z</time>
      </trkpt>
      <trkpt lat="43.74313" lon="3.86356">
        <ele>76.31669169514</ele>
        <time>2021-03-03T21:14:45.062Z</time>
      </trkpt>
      <trkpt lat="43.7432" lon="3.86329">
        <ele>75.46704264761</ele>
        <time>2021-03-03T21:14:48.252Z</time>
      </trkpt>
      <trkpt lat="43.74341" lon="3.86315">
        <ele>74.8670309809</ele>
        <time>2021-03-03T21:14:51.446Z</time>
      </trkpt>
      <trkpt lat="43.74341" lon="3.863">
        <ele>74.37469817927</ele>
        <time>2021-03-03T21:14:54.642Z</time>
      </trkpt>
      <trkpt lat="43.7429" lon="3.8622">
        <ele>73.93895319075</ele>
        <time>2021-03-03T21:14:57.854Z</time>
      </trkpt>
      <trkpt lat="43.74267" lon="3.86174">
        <ele>73.82927904513</ele>
        <time>2021-03-03T21:15:01.074Z</time>
      </trkpt>
      <trkpt lat="43.74257" lon="3.86136">
        <ele>73.82834260606</ele>
        <time>2021-03-03T21:15:04.300Z</time>
      </trkpt>
      <trkpt lat="43.74219" lon="3.86025">
        <ele>73.85941213977</ele>
        <time>2021-03-03T21:15:07.543Z</time>
      </trkpt>
      <trkpt lat="43.74194" lon="3.8596">
        <ele>74.32262353551</ele>
        <time>2021-03-03T21:15:10.797Z</time>
      </trkpt>
      <trkpt lat="43.74186" lon="3.85926">
        <ele>74.67093779741</ele>
        <time>2021-03-03T21:15:14.056Z</time>
      </trkpt>
      <trkpt lat="43.74189" lon="3.85827">
        <ele>75.10829604103</ele>
        <time>2021-03-03T21:15:17.330Z</time>
      </trkpt>
      <trkpt lat="43.74173" lon="3.85756">
        <ele>75.74349373666</ele>
        <time>2021-03-03T21:15:20.614Z</time>
      </trkpt>
      <trkpt lat="43.74146" lon="3.85681">
        <ele>76.49658950019</ele>
        <time>2021-03-03T21:15:23.911Z</time>
      </trkpt>
      <trkpt lat="43.74179" lon="3.85677">
        <ele>77.0682532072</ele>
        <time>2021-03-03T21:15:27.214Z</time>
      </trkpt>
      <trkpt lat="43.74263" lon="3.85689">
        <ele>77.79550633729</ele>
        <time>2021-03-03T21:15:30.534Z</time>
      </trkpt>
      <trkpt lat="43.7427" lon="3.8569">
        <ele>78.35893011864</ele>
        <time>2021-03-03T21:15:33.855Z</time>
      </trkpt>
      <trkpt lat="43.74369" lon="3.85579">
        <ele>78.88850645874</ele>
        <time>2021-03-03T21:15:37.202Z</time>
      </trkpt>
      <trkpt lat="43.7433" lon="3.8551">
        <ele>79.28298833464</ele>
        <time>2021-03-03T21:15:40.561Z</time>
      </trkpt>
      <trkpt lat="43.74311" lon="3.8545">
        <ele>79.59071785292</ele>
        <time>2021-03-03T21:15:43.930Z</time>
      </trkpt>
      <trkpt lat="43.742" lon="3.85105">
        <ele>79.90853397241</ele>
        <time>2021-03-03T21:15:47.354Z</time>
      </trkpt>
      <trkpt lat="43.74195" lon="3.85088">
        <ele>80.27976534383</ele>
        <time>2021-03-03T21:15:50.780Z</time>
      </trkpt>
      <trkpt lat="43.74195" lon="3.85088">
        <ele>80.70679340201</ele>
        <time>2021-03-03T21:15:54.206Z</time>
      </trkpt>
      <trkpt lat="43.74164" lon="3.8499">
        <ele>81.20292003408</ele>
        <time>2021-03-03T21:15:57.648Z</time>
      </trkpt>
      <trkpt lat="43.74083" lon="3.84734">
        <ele>81.91171843948</ele>
        <time>2021-03-03T21:16:01.130Z</time>
      </trkpt>
      <trkpt lat="43.74083" lon="3.84734">
        <ele>82.33968361585</ele>
        <time>2021-03-03T21:16:04.612Z</time>
      </trkpt>
      <trkpt lat="43.7406" lon="3.84656">
        <ele>82.79827763468</ele>
        <time>2021-03-03T21:16:08.107Z</time>
      </trkpt>
      <trkpt lat="43.73857" lon="3.84751">
        <ele>83.02580546769</ele>
        <time>2021-03-03T21:16:11.644Z</time>
      </trkpt>
      <trkpt lat="43.73844" lon="3.84758">
        <ele>83.19547899179</ele>
        <time>2021-03-03T21:16:15.184Z</time>
      </trkpt>
      <trkpt lat="43.73738" lon="3.84792">
        <ele>83.19858973773</ele>
        <time>2021-03-03T21:16:18.746Z</time>
      </trkpt>
      <trkpt lat="43.73722" lon="3.84802">
        <ele>83.11306255627</ele>
        <time>2021-03-03T21:16:22.312Z</time>
      </trkpt>
      <trkpt lat="43.73709" lon="3.84847">
        <ele>82.96842785632</ele>
        <time>2021-03-03T21:16:25.885Z</time>
      </trkpt>
      <trkpt lat="43.73646" lon="3.84807">
        <ele>82.54812449626</ele>
        <time>2021-03-03T21:16:29.471Z</time>
      </trkpt>
      <trkpt lat="43.73647" lon="3.84807">
        <ele>82.0783812279</ele>
        <time>2021-03-03T21:16:33.057Z</time>
      </trkpt>
      <trkpt lat="43.73625" lon="3.84794">
        <ele>81.42352116962</ele>
        <time>2021-03-03T21:16:36.648Z</time>
      </trkpt>
      <trkpt lat="43.73498" lon="3.84714">
        <ele>80.73985066046</ele>
        <time>2021-03-03T21:16:40.267Z</time>
      </trkpt>
      <trkpt lat="43.73498" lon="3.84714">
        <ele>79.95979714202</ele>
        <time>2021-03-03T21:16:43.886Z</time>
      </trkpt>
      <trkpt lat="43.7345" lon="3.84694">
        <ele>79.1105631378</ele>
        <time>2021-03-03T21:16:47.515Z</time>
      </trkpt>
      <trkpt lat="43.73421" lon="3.8471">
        <ele>78.18321614091</ele>
        <time>2021-03-03T21:16:51.150Z</time>
      </trkpt>
      <trkpt lat="43.73379" lon="3.84748">
        <ele>77.25832265132</ele>
        <time>2021-03-03T21:16:54.795Z</time>
      </trkpt>
      <trkpt lat="43.73344" lon="3.84795">
        <ele>76.45809304732</ele>
        <time>2021-03-03T21:16:58.450Z</time>
      </trkpt>
      <trkpt lat="43.73311" lon="3.84886">
        <ele>75.69518628916</ele>
        <time>2021-03-03T21:17:02.120Z</time>
      </trkpt>
      <trkpt lat="43.73259" lon="3.84996">
        <ele>74.78052526944</ele>
        <time>2021-03-03T21:17:05.809Z</time>
      </trkpt>
      <trkpt lat="43.73261" lon="3.85019">
        <ele>74.32751687822</ele>
        <time>2021-03-03T21:17:09.501Z</time>
      </trkpt>
      <trkpt lat="43.73296" lon="3.85073">
        <ele>74.13392845159</ele>
        <time>2021-03-03T21:17:13.204Z</time>
      </trkpt>
      <trkpt lat="43.73294" lon="3.85139">
        <ele>74.1832650097</ele>
        <time>2021-03-03T21:17:16.916Z</time>
      </trkpt>
      <trkpt lat="43.7327" lon="3.85151">
        <ele>74.69636000749</ele>
        <time>2021-03-03T21:17:20.633Z</time>
      </trkpt>
      <trkpt lat="43.73222" lon="3.85148">
        <ele>75.78772898953</ele>
        <time>2021-03-03T21:17:24.360Z</time>
      </trkpt>
      <trkpt lat="43.73183" lon="3.85175">
        <ele>77.45052191135</ele>
        <time>2021-03-03T21:17:28.096Z</time>
      </trkpt>
      <trkpt lat="43.7318" lon="3.85196">
        <ele>79.43843612543</ele>
        <time>2021-03-03T21:17:31.835Z</time>
      </trkpt>
      <trkpt lat="43.73183" lon="3.85257">
        <ele>81.85127367855</ele>
        <time>2021-03-03T21:17:35.583Z</time>
      </trkpt>
      <trkpt lat="43.73171" lon="3.85311">
        <ele>85.00190528079</ele>
        <time>2021-03-03T21:17:39.339Z</time>
      </trkpt>
      <trkpt lat="43.73154" lon="3.85329">
        <ele>88.13060351492</ele>
        <time>2021-03-03T21:17:43.099Z</time>
      </trkpt>
      <trkpt lat="43.73112" lon="3.85307">
        <ele>91.54705888281</ele>
        <time>2021-03-03T21:17:46.868Z</time>
      </trkpt>
      <trkpt lat="43.73065" lon="3.85307">
        <ele>94.98247647344</ele>
        <time>2021-03-03T21:17:50.646Z</time>
      </trkpt>
      <trkpt lat="43.72929" lon="3.85363">
        <ele>98.69870519567</ele>
        <time>2021-03-03T21:17:54.453Z</time>
      </trkpt>
      <trkpt lat="43.72864" lon="3.85372">
        <ele>101.88012258975</ele>
        <time>2021-03-03T21:17:58.273Z</time>
      </trkpt>
      <trkpt lat="43.72808" lon="3.85412">
        <ele>104.73054217676</ele>
        <time>2021-03-03T21:18:02.106Z</time>
      </trkpt>
      <trkpt lat="43.72769" lon="3.85284">
        <ele>107.22858704838</ele>
        <time>2021-03-03T21:18:05.959Z</time>
      </trkpt>
      <trkpt lat="43.72759" lon="3.85269">
        <ele>109.0822921517</ele>
        <time>2021-03-03T21:18:09.815Z</time>
      </trkpt>
      <trkpt lat="43.72735" lon="3.85264">
        <ele>110.34934260639</ele>
        <time>2021-03-03T21:18:13.676Z</time>
      </trkpt>
      <trkpt lat="43.72686" lon="3.85279">
        <ele>110.90477132024</ele>
        <time>2021-03-03T21:18:17.546Z</time>
      </trkpt>
      <trkpt lat="43.72594" lon="3.85303">
        <ele>110.9531138286</ele>
        <time>2021-03-03T21:18:21.435Z</time>
      </trkpt>
      <trkpt lat="43.72566" lon="3.85324">
        <ele>110.18941279133</ele>
        <time>2021-03-03T21:18:25.331Z</time>
      </trkpt>
      <trkpt lat="43.72541" lon="3.85388">
        <ele>108.72462037069</ele>
        <time>2021-03-03T21:18:29.237Z</time>
      </trkpt>
      <trkpt lat="43.72502" lon="3.8546">
        <ele>106.52280788888</ele>
        <time>2021-03-03T21:18:33.156Z</time>
      </trkpt>
      <trkpt lat="43.72396" lon="3.85624">
        <ele>103.70994651973</ele>
        <time>2021-03-03T21:18:37.107Z</time>
      </trkpt>
      <trkpt lat="43.72341" lon="3.85675">
        <ele>100.76222330912</ele>
        <time>2021-03-03T21:18:41.071Z</time>
      </trkpt>
      <trkpt lat="43.72262" lon="3.8572">
        <ele>97.47796077424</ele>
        <time>2021-03-03T21:18:45.052Z</time>
      </trkpt>
      <trkpt lat="43.72243" lon="3.85716">
        <ele>94.52951574562</ele>
        <time>2021-03-03T21:18:49.037Z</time>
      </trkpt>
      <trkpt lat="43.7221" lon="3.85725">
        <ele>91.6988961327</ele>
        <time>2021-03-03T21:18:53.029Z</time>
      </trkpt>
      <trkpt lat="43.72193" lon="3.85745">
        <ele>89.03835698521</ele>
        <time>2021-03-03T21:18:57.025Z</time>
      </trkpt>
      <trkpt lat="43.72133" lon="3.85806">
        <ele>86.54199725598</ele>
        <time>2021-03-03T21:19:01.036Z</time>
      </trkpt>
      <trkpt lat="43.71959" lon="3.85836">
        <ele>84.35789586736</ele>
        <time>2021-03-03T21:19:05.082Z</time>
      </trkpt>
      <trkpt lat="43.71853" lon="3.85888">
        <ele>82.53180667621</ele>
        <time>2021-03-03T21:19:09.151Z</time>
      </trkpt>
      <trkpt lat="43.71853" lon="3.85888">
        <ele>81.19687733286</ele>
        <time>2021-03-03T21:19:13.220Z</time>
      </trkpt>
      <trkpt lat="43.71797" lon="3.85923">
        <ele>80.24859039071</ele>
        <time>2021-03-03T21:19:17.301Z</time>
      </trkpt>
      <trkpt lat="43.71716" lon="3.85918">
        <ele>79.72928463276</ele>
        <time>2021-03-03T21:19:21.398Z</time>
      </trkpt>
      <trkpt lat="43.71717" lon="3.85957">
        <ele>79.13165608999</ele>
        <time>2021-03-03T21:19:25.501Z</time>
      </trkpt>
      <trkpt lat="43.71682" lon="3.85986">
        <ele>78.91752443278</ele>
        <time>2021-03-03T21:19:29.612Z</time>
      </trkpt>
      <trkpt lat="43.71678" lon="3.8599">
        <ele>78.81210655317</ele>
        <time>2021-03-03T21:19:33.724Z</time>
      </trkpt>
      <trkpt lat="43.71647" lon="3.86022">
        <ele>78.79016373223</ele>
        <time>2021-03-03T21:19:37.844Z</time>
      </trkpt>
      <trkpt lat="43.71647" lon="3.86022">
        <ele>78.81728507981</ele>
        <time>2021-03-03T21:19:41.964Z</time>
      </trkpt>
      <trkpt lat="43.71626" lon="3.86039">
        <ele>78.8352496228</ele>
        <time>2021-03-03T21:19:46.089Z</time>
      </trkpt>
      <trkpt lat="43.71591" lon="3.86046">
        <ele>78.87954532806</ele>
        <time>2021-03-03T21:19:50.221Z</time>
      </trkpt>
      <trkpt lat="43.71591" lon="3.86046">
        <ele>78.82606145609</ele>
        <time>2021-03-03T21:19:54.353Z</time>
      </trkpt>
      <trkpt lat="43.71575" lon="3.8605">
        <ele>78.62950142763</ele>
        <time>2021-03-03T21:19:58.488Z</time>
      </trkpt>
      <trkpt lat="43.71486" lon="3.86071">
        <ele>78.24300908931</ele>
        <time>2021-03-03T21:20:02.641Z</time>
      </trkpt>
      <trkpt lat="43.71443" lon="3.86083">
        <ele>77.98020385606</ele>
        <time>2021-03-03T21:20:06.803Z</time>
      </trkpt>
      <trkpt lat="43.7144" lon="3.86084">
        <ele>77.77955131763</ele>
        <time>2021-03-03T21:20:10.966Z</time>
      </trkpt>
      <trkpt lat="43.71358" lon="3.8611">
        <ele>77.66817966278</ele>
        <time>2021-03-03T21:20:15.145Z</time>
      </trkpt>
      <trkpt lat="43.71355" lon="3.86111">
        <ele>77.45116148982</ele>
        <time>2021-03-03T21:20:19.325Z</time>
      </trkpt>
      <trkpt lat="43.71326" lon="3.86118">
        <ele>77.1628560243</ele>
        <time>2021-03-03T21:20:23.511Z</time>
      </trkpt>
      <trkpt lat="43.71298" lon="3.86123">
        <ele>76.85459351336</ele>
        <time>2021-03-03T21:20:27.703Z</time>
      </trkpt>
      <trkpt lat="43.71284" lon="3.86126">
        <ele>76.5422239376</ele>
        <time>2021-03-03T21:20:31.897Z</time>
      </trkpt>
      <trkpt lat="43.71284" lon="3.86126">
        <ele>76.22864382325</ele>
        <time>2021-03-03T21:20:36.091Z</time>
      </trkpt>
      <trkpt lat="43.71181" lon="3.86146">
        <ele>75.94952575394</ele>
        <time>2021-03-03T21:20:40.306Z</time>
      </trkpt>
      <trkpt lat="43.71181" lon="3.86146">
        <ele>75.47974438008</ele>
        <time>2021-03-03T21:20:44.521Z</time>
      </trkpt>
      <trkpt lat="43.71057" lon="3.86155">
        <ele>75.07092551188</ele>
        <time>2021-03-03T21:20:48.761Z</time>
      </trkpt>
      <trkpt lat="43.70955" lon="3.86146">
        <ele>74.047439791</ele>
        <time>2021-03-03T21:20:53.022Z</time>
      </trkpt>
      <trkpt lat="43.70955" lon="3.86146">
        <ele>73.21115138345</ele>
        <time>2021-03-03T21:20:57.283Z</time>
      </trkpt>
      <trkpt lat="43.70842" lon="3.86125">
        <ele>72.12547636012</ele>
        <time>2021-03-03T21:21:01.566Z</time>
      </trkpt>
      <trkpt lat="43.70786" lon="3.86111">
        <ele>71.31383698129</ele>
        <time>2021-03-03T21:21:05.861Z</time>
      </trkpt>
      <trkpt lat="43.70723" lon="3.86107">
        <ele>69.93396668086</ele>
        <time>2021-03-03T21:21:10.168Z</time>
      </trkpt>
      <trkpt lat="43.7068" lon="3.86104">
        <ele>68.75773274923</ele>
        <time>2021-03-03T21:21:14.484Z</time>
      </trkpt>
      <trkpt lat="43.70645" lon="3.86099">
        <ele>67.7181231408</ele>
        <time>2021-03-03T21:21:18.807Z</time>
      </trkpt>
      <trkpt lat="43.70577" lon="3.86069">
        <ele>66.6271549668</ele>
        <time>2021-03-03T21:21:23.144Z</time>
      </trkpt>
      <trkpt lat="43.70488" lon="3.85968">
        <ele>65.59017293544</ele>
        <time>2021-03-03T21:21:27.504Z</time>
      </trkpt>
      <trkpt lat="43.70414" lon="3.85885">
        <ele>64.70956425151</ele>
        <time>2021-03-03T21:21:31.883Z</time>
      </trkpt>
      <trkpt lat="43.70412" lon="3.85882">
        <ele>64.22572279344</ele>
        <time>2021-03-03T21:21:36.263Z</time>
      </trkpt>
      <trkpt lat="43.70412" lon="3.85882">
        <ele>63.9489950606</ele>
        <time>2021-03-03T21:21:40.643Z</time>
      </trkpt>
      <trkpt lat="43.70374" lon="3.85736">
        <ele>64.1086039809</ele>
        <time>2021-03-03T21:21:45.045Z</time>
      </trkpt>
      <trkpt lat="43.70365" lon="3.85712">
        <ele>64.20154105444</ele>
        <time>2021-03-03T21:21:49.451Z</time>
      </trkpt>
      <trkpt lat="43.7035" lon="3.85702">
        <ele>64.31943219957</ele>
        <time>2021-03-03T21:21:53.861Z</time>
      </trkpt>
      <trkpt lat="43.70342" lon="3.857">
        <ele>64.47567957926</ele>
        <time>2021-03-03T21:21:58.272Z</time>
      </trkpt>
      <trkpt lat="43.70277" lon="3.85674">
        <ele>64.70739474349</ele>
        <time>2021-03-03T21:22:02.697Z</time>
      </trkpt>
      <trkpt lat="43.70264" lon="3.85669">
        <ele>64.8478322839</ele>
        <time>2021-03-03T21:22:07.125Z</time>
      </trkpt>
      <trkpt lat="43.7026" lon="3.85667">
        <ele>65.01016778804</ele>
        <time>2021-03-03T21:22:11.553Z</time>
      </trkpt>
      <trkpt lat="43.70166" lon="3.8563">
        <ele>65.10893306306</ele>
        <time>2021-03-03T21:22:16.001Z</time>
      </trkpt>
      <trkpt lat="43.70161" lon="3.85629">
        <ele>65.25947508214</ele>
        <time>2021-03-03T21:22:20.450Z</time>
      </trkpt>
      <trkpt lat="43.70164" lon="3.8561">
        <ele>65.41818807431</ele>
        <time>2021-03-03T21:22:24.902Z</time>
      </trkpt>
      <trkpt lat="43.70164" lon="3.8558">
        <ele>65.60269877614</ele>
        <time>2021-03-03T21:22:29.358Z</time>
      </trkpt>
      <trkpt lat="43.70188" lon="3.85442">
        <ele>65.61725627147</ele>
        <time>2021-03-03T21:22:33.835Z</time>
      </trkpt>
      <trkpt lat="43.7017" lon="3.85399">
        <ele>66.02169998681</ele>
        <time>2021-03-03T21:22:38.319Z</time>
      </trkpt>
      <trkpt lat="43.70168" lon="3.85377">
        <ele>66.36122135974</ele>
        <time>2021-03-03T21:22:42.806Z</time>
      </trkpt>
      <trkpt lat="43.70174" lon="3.8537">
        <ele>66.62273489963</ele>
        <time>2021-03-03T21:22:47.294Z</time>
      </trkpt>
      <trkpt lat="43.70163" lon="3.85369">
        <ele>66.80251759756</ele>
        <time>2021-03-03T21:22:51.785Z</time>
      </trkpt>
      <trkpt lat="43.70093" lon="3.85356">
        <ele>67.02756507016</ele>
        <time>2021-03-03T21:22:56.290Z</time>
      </trkpt>
      <trkpt lat="43.70086" lon="3.85355">
        <ele>67.12160494008</ele>
        <time>2021-03-03T21:23:00.796Z</time>
      </trkpt>
      <trkpt lat="43.70086" lon="3.85355">
        <ele>67.17163267871</ele>
        <time>2021-03-03T21:23:05.302Z</time>
      </trkpt>
      <trkpt lat="43.70024" lon="3.85351">
        <ele>67.13391951447</ele>
        <time>2021-03-03T21:23:09.820Z</time>
      </trkpt>
      <trkpt lat="43.69933" lon="3.85385">
        <ele>67.20020307697</ele>
        <time>2021-03-03T21:23:14.357Z</time>
      </trkpt>
      <trkpt lat="43.69686" lon="3.85374">
        <ele>66.69732102315</ele>
        <time>2021-03-03T21:23:18.944Z</time>
      </trkpt>
      <trkpt lat="43.69686" lon="3.85374">
        <ele>66.70197011368</ele>
        <time>2021-03-03T21:23:23.531Z</time>
      </trkpt>
      <trkpt lat="43.69595" lon="3.85368">
        <ele>66.88433631926</ele>
        <time>2021-03-03T21:23:28.136Z</time>
      </trkpt>
      <trkpt lat="43.69506" lon="3.85374">
        <ele>66.82553744839</ele>
        <time>2021-03-03T21:23:32.759Z</time>
      </trkpt>
      <trkpt lat="43.69459" lon="3.85364">
        <ele>66.45240357543</ele>
        <time>2021-03-03T21:23:37.391Z</time>
      </trkpt>
      <trkpt lat="43.69459" lon="3.85364">
        <ele>66.05919490921</ele>
        <time>2021-03-03T21:23:42.023Z</time>
      </trkpt>
      <trkpt lat="43.69357" lon="3.85341">
        <ele>65.89663304831</ele>
        <time>2021-03-03T21:23:46.676Z</time>
      </trkpt>
      <trkpt lat="43.69357" lon="3.85341">
        <ele>65.58354195077</ele>
        <time>2021-03-03T21:23:51.329Z</time>
      </trkpt>
      <trkpt lat="43.69252" lon="3.85318">
        <ele>65.41428917186</ele>
        <time>2021-03-03T21:23:56.003Z</time>
      </trkpt>
      <trkpt lat="43.69155" lon="3.85277">
        <ele>64.45470136047</ele>
        <time>2021-03-03T21:24:00.698Z</time>
      </trkpt>
      <trkpt lat="43.69155" lon="3.85277">
        <ele>64.15587500102</ele>
        <time>2021-03-03T21:24:05.393Z</time>
      </trkpt>
      <trkpt lat="43.69122" lon="3.85277">
        <ele>63.71175366221</ele>
        <time>2021-03-03T21:24:10.094Z</time>
      </trkpt>
      <trkpt lat="43.69095" lon="3.85288">
        <ele>63.49021329561</ele>
        <time>2021-03-03T21:24:14.801Z</time>
      </trkpt>
      <trkpt lat="43.69084" lon="3.85297">
        <ele>63.24592318957</ele>
        <time>2021-03-03T21:24:19.511Z</time>
      </trkpt>
      <trkpt lat="43.69061" lon="3.85314">
        <ele>63.04307933303</ele>
        <time>2021-03-03T21:24:24.226Z</time>
      </trkpt>
      <trkpt lat="43.69035" lon="3.85336">
        <ele>62.65979061412</ele>
        <time>2021-03-03T21:24:28.947Z</time>
      </trkpt>
      <trkpt lat="43.68944" lon="3.8543">
        <ele>62.23024222247</ele>
        <time>2021-03-03T21:24:33.691Z</time>
      </trkpt>
      <trkpt lat="43.68889" lon="3.85491">
        <ele>61.7882542755</ele>
        <time>2021-03-03T21:24:38.449Z</time>
      </trkpt>
      <trkpt lat="43.68829" lon="3.8554">
        <ele>61.23934465152</ele>
        <time>2021-03-03T21:24:43.221Z</time>
      </trkpt>
      <trkpt lat="43.68735" lon="3.85604">
        <ele>60.56501872428</ele>
        <time>2021-03-03T21:24:48.014Z</time>
      </trkpt>
      <trkpt lat="43.68582" lon="3.85648">
        <ele>59.93511799305</ele>
        <time>2021-03-03T21:24:52.838Z</time>
      </trkpt>
      <trkpt lat="43.68582" lon="3.85648">
        <ele>59.71148706497</ele>
        <time>2021-03-03T21:24:57.662Z</time>
      </trkpt>
      <trkpt lat="43.6856" lon="3.85653">
        <ele>59.56221513463</ele>
        <time>2021-03-03T21:25:02.490Z</time>
      </trkpt>
      <trkpt lat="43.68529" lon="3.85656">
        <ele>59.37028689157</ele>
        <time>2021-03-03T21:25:07.325Z</time>
      </trkpt>
      <trkpt lat="43.68462" lon="3.85642">
        <ele>59.31831071065</ele>
        <time>2021-03-03T21:25:12.173Z</time>
      </trkpt>
      <trkpt lat="43.68408" lon="3.85647">
        <ele>59.56198874626</ele>
        <time>2021-03-03T21:25:17.032Z</time>
      </trkpt>
      <trkpt lat="43.68396" lon="3.85648">
        <ele>59.56197910577</ele>
        <time>2021-03-03T21:25:21.893Z</time>
      </trkpt>
      <trkpt lat="43.68337" lon="3.85653">
        <ele>59.61476041642</ele>
        <time>2021-03-03T21:25:26.766Z</time>
      </trkpt>
      <trkpt lat="43.68337" lon="3.85653">
        <ele>59.65023258094</ele>
        <time>2021-03-03T21:25:31.639Z</time>
      </trkpt>
      <trkpt lat="43.6832" lon="3.85656">
        <ele>59.72087867273</ele>
        <time>2021-03-03T21:25:36.516Z</time>
      </trkpt>
      <trkpt lat="43.68309" lon="3.85658">
        <ele>59.81717015478</ele>
        <time>2021-03-03T21:25:41.395Z</time>
      </trkpt>
      <trkpt lat="43.68302" lon="3.85659">
        <ele>59.98336711709</ele>
        <time>2021-03-03T21:25:46.275Z</time>
      </trkpt>
      <trkpt lat="43.68292" lon="3.85661">
        <ele>60.20003982658</ele>
        <time>2021-03-03T21:25:51.157Z</time>
      </trkpt>
      <trkpt lat="43.68292" lon="3.85661">
        <ele>60.54249583219</ele>
        <time>2021-03-03T21:25:56.039Z</time>
      </trkpt>
      <trkpt lat="43.68211" lon="3.8568">
        <ele>61.11473542552</ele>
        <time>2021-03-03T21:26:00.938Z</time>
      </trkpt>
      <trkpt lat="43.68201" lon="3.85682">
        <ele>61.36800593533</ele>
        <time>2021-03-03T21:26:05.839Z</time>
      </trkpt>
      <trkpt lat="43.68187" lon="3.85684">
        <ele>61.52277804554</ele>
        <time>2021-03-03T21:26:10.743Z</time>
      </trkpt>
      <trkpt lat="43.68137" lon="3.85691">
        <ele>61.55038803157</ele>
        <time>2021-03-03T21:26:15.656Z</time>
      </trkpt>
      <trkpt lat="43.68086" lon="3.85697">
        <ele>61.17334816652</ele>
        <time>2021-03-03T21:26:20.580Z</time>
      </trkpt>
      <trkpt lat="43.67987" lon="3.85674">
        <ele>61.10121743862</ele>
        <time>2021-03-03T21:26:25.524Z</time>
      </trkpt>
      <trkpt lat="43.67865" lon="3.85641">
        <ele>60.9724466263</ele>
        <time>2021-03-03T21:26:30.493Z</time>
      </trkpt>
      <trkpt lat="43.67865" lon="3.85641">
        <ele>60.88448923285</ele>
        <time>2021-03-03T21:26:35.462Z</time>
      </trkpt>
      <trkpt lat="43.6777" lon="3.85606">
        <ele>60.69044997477</ele>
        <time>2021-03-03T21:26:40.450Z</time>
      </trkpt>
      <trkpt lat="43.67742" lon="3.85589">
        <ele>60.5928005405</ele>
        <time>2021-03-03T21:26:45.444Z</time>
      </trkpt>
      <trkpt lat="43.67741" lon="3.85587">
        <ele>60.54489627186</ele>
        <time>2021-03-03T21:26:50.439Z</time>
      </trkpt>
      <trkpt lat="43.67726" lon="3.85589">
        <ele>60.47021422858</ele>
        <time>2021-03-03T21:26:55.437Z</time>
      </trkpt>
      <trkpt lat="43.6772" lon="3.85598">
        <ele>60.37977180771</ele>
        <time>2021-03-03T21:27:00.437Z</time>
      </trkpt>
      <trkpt lat="43.67702" lon="3.85614">
        <ele>60.30398178368</ele>
        <time>2021-03-03T21:27:05.441Z</time>
      </trkpt>
      <trkpt lat="43.67494" lon="3.85826">
        <ele>60.11366449499</ele>
        <time>2021-03-03T21:27:10.497Z</time>
      </trkpt>
      <trkpt lat="43.67421" lon="3.85901">
        <ele>60.34758922788</ele>
        <time>2021-03-03T21:27:15.571Z</time>
      </trkpt>
      <trkpt lat="43.67412" lon="3.85909">
        <ele>60.31930614275</ele>
        <time>2021-03-03T21:27:20.647Z</time>
      </trkpt>
    </trkseg>
  </trk>
</gpx>